ASN logo
ASN Wikibase Occurrence # 244368
Last updated: 25 November 2021
This information is added by users of ASN. Neither ASN nor the Flight Safety Foundation are responsible for the completeness or correctness of this information. If you feel this information is incomplete or incorrect, you can submit corrected information.

Date:24-OCT-2020
Time:11:57 LT
Type:Silhouette image of generic E145 model; specific model in this crash may look slightly different
Embraer ERJ-145LR
Owner/operator:American Eagle
Registration: N674RJ
MSN: 14500801
Fatalities:Fatalities: 0 / Occupants: 28
Other fatalities:0
Aircraft damage: Substantial
Location:Freeport-Grand Bahama International Airport (FPO/MYGF) -   Bahamas
Phase: Landing
Nature:Passenger - Scheduled
Departure airport:Miami International Airport, FL (MIA/KMIA)
Destination airport:Freeport-Grand Bahama International Airport (FPO/MYGF)
Narrative:
American Eagle flight AA4194, an Embraer ERJ-145LR, suffered a runway excursion after landing on runway 06 at Freeport-Grand Bahama International Airport, Bahamas. Both main landing gear collapsed as a result of the landing.

Weather about the incident time (1557Z):
MYGF 241600Z 11009KT 9999 FEW020 SCT120 BKN250 29/24 A2996
MYGF 241500Z 10008KT 9999 FEW018 SCT120 29/24 A2998

Sources:

https://flightaware.com/live/flight/AAL4194/history/20201024/1514Z/KMIA/MYGF
https://www.flightradar24.com/data/flights/aa4194#25dbf1bb
https://airwaysmag.com/airlines/american-eagle-embraer-e145-crash-lands-in-freeport-grand-bahama/


Images:

Photo of N674RJ courtesy AirHistory.net


Miami - International (KMIA / MIA)
11 February 2020; (c) Lewis Grant


Photo: Bahamas AAIA


Photo: Bahamas AAIA

Revision history:

Date/timeContributorUpdates
24-Oct-2020 19:11 harro Added
24-Oct-2020 19:11 harro Updated [Time, Cn, Location, Source, Embed code]
24-Oct-2020 19:18 harro Updated [Total occupants, Narrative, Photo]
24-Oct-2020 19:19 harro Updated [Photo]
24-Oct-2020 19:20 harro Updated [Embed code, Narrative]
25-Oct-2020 14:48 Spacepope Updated [Total occupants, Source, Damage, Narrative]

Corrections or additions? ... Edit this accident description